createdAt,value
2019-05-07T00:01:14.327Z,4.40
2019-05-07T00:03:43.798Z,4.30
2019-05-07T00:06:13.229Z,4.00
2019-05-07T00:08:44.902Z,4.10
2019-05-07T00:11:13.834Z,3.50
2019-05-07T00:13:44.433Z,4.27
2019-05-07T00:16:14.046Z,4.20
2019-05-07T00:18:43.607Z,4.77
2019-05-07T00:21:13.039Z,4.20
2019-05-07T00:23:43.234Z,3.43
2019-05-07T00:26:13.337Z,3.90
2019-05-07T00:28:43.439Z,4.67
2019-05-07T00:31:13.281Z,3.60
2019-05-07T00:33:43.447Z,4.07
2019-05-07T00:36:35.310Z,4.07
2019-05-07T00:39:24.298Z,4.07
2019-05-07T00:42:00.200Z,3.60
2019-05-07T00:44:29.978Z,3.87
2019-05-07T00:46:59.415Z,3.90
2019-05-07T00:49:29.560Z,3.80
2019-05-07T00:51:59.011Z,4.00
2019-05-07T00:54:28.476Z,3.60
2019-05-07T00:56:57.921Z,4.00
2019-05-07T00:59:27.400Z,3.40
2019-05-07T01:01:56.853Z,3.47
2019-05-07T01:04:26.388Z,4.33
2019-05-07T01:06:55.839Z,3.93
2019-05-07T01:09:25.384Z,3.80
2019-05-07T01:11:54.812Z,3.80
2019-05-07T01:14:24.301Z,4.17
2019-05-07T01:16:53.735Z,3.60
2019-05-07T01:20:27.953Z,4.10
2019-05-07T01:22:58.701Z,3.53
2019-05-07T01:25:28.510Z,4.50
2019-05-07T01:27:58.224Z,3.27
2019-05-07T01:30:27.724Z,4.10
2019-05-07T01:33:12.064Z,4.03
2019-05-07T01:35:58.692Z,3.70
2019-05-07T01:38:28.395Z,3.47
2019-05-07T01:40:58.062Z,3.40
2019-05-07T01:43:27.702Z,4.13
2019-05-07T01:45:57.226Z,3.70
2019-05-07T01:48:26.850Z,4.00
2019-05-07T01:50:56.563Z,3.90
2019-05-07T01:53:26.356Z,3.70
2019-05-07T01:55:55.960Z,4.40
2019-05-07T01:58:25.575Z,4.40
2019-05-07T02:00:55.339Z,4.37
2019-05-07T02:03:44.199Z,4.63
2019-05-07T02:06:22.760Z,3.97
2019-05-07T02:09:02.354Z,4.33
2019-05-07T02:11:37.171Z,4.33
2019-05-07T02:14:06.924Z,4.20
2019-05-07T02:16:36.865Z,4.37
2019-05-07T02:19:06.418Z,3.67
2019-05-07T02:21:36.098Z,4.30
2019-05-07T02:24:07.288Z,4.30
2019-05-07T02:26:36.774Z,3.80
2019-05-07T02:29:06.439Z,4.20
2019-05-07T02:31:36.046Z,4.13
2019-05-07T02:34:05.690Z,4.40
2019-05-07T02:36:35.977Z,4.60
2019-05-07T02:39:16.539Z,3.80
2019-05-07T02:41:46.096Z,3.87
2019-05-07T02:44:15.649Z,3.63
2019-05-07T02:46:52.772Z,3.83
2019-05-07T02:49:43.918Z,3.50
2019-05-07T02:52:44.013Z,3.60
2019-05-07T02:55:33.889Z,3.23
2019-05-07T02:58:03.829Z,4.07
2019-05-07T03:00:33.731Z,3.90
2019-05-07T03:03:04.213Z,4.40
2019-05-07T03:05:34.977Z,3.43
2019-05-07T03:08:04.702Z,3.60
2019-05-07T03:10:34.533Z,3.30
2019-05-07T03:13:04.340Z,3.67
2019-05-07T03:15:33.822Z,3.70
2019-05-07T03:18:03.800Z,3.87
2019-05-07T03:20:47.501Z,3.70
2019-05-07T03:23:22.597Z,3.67
2019-05-07T03:26:13.712Z,3.50
2019-05-07T03:28:53.602Z,3.87
2019-05-07T03:31:29.087Z,3.30
2019-05-07T03:34:06.838Z,3.37
2019-05-07T03:36:46.765Z,3.40
2019-05-07T03:39:14.409Z,3.87
2019-05-07T03:41:44.192Z,4.10
2019-05-07T03:44:33.854Z,4.03
2019-05-07T03:47:34.460Z,3.53
2019-05-07T03:50:04.336Z,4.13
2019-05-07T03:52:33.840Z,3.43
2019-05-07T03:55:03.889Z,3.40
2019-05-07T03:57:33.720Z,4.60
2019-05-07T04:00:04.167Z,3.40
2019-05-07T04:02:34.006Z,3.17
2019-05-07T04:05:04.377Z,3.87
2019-05-07T04:07:34.037Z,2.83
2019-05-07T04:10:04.666Z,3.07
2019-05-07T04:12:34.497Z,3.30
2019-05-07T04:15:04.567Z,4.07
2019-05-07T04:17:34.183Z,3.43
2019-05-07T04:20:04.562Z,3.40
2019-05-07T04:22:34.916Z,3.43
2019-05-07T04:25:30.111Z,3.30
2019-05-07T04:28:13.977Z,3.20
2019-05-07T04:30:43.830Z,3.30
2019-05-07T04:33:15.109Z,3.37
2019-05-07T04:36:09.537Z,3.33
2019-05-07T04:38:39.018Z,3.10
2019-05-07T04:41:08.461Z,3.13
2019-05-07T04:43:37.989Z,3.63
2019-05-07T04:46:07.419Z,3.57
2019-05-07T04:48:38.090Z,4.10
2019-05-07T04:51:09.120Z,3.30
2019-05-07T04:53:38.618Z,3.57
2019-05-07T04:56:08.185Z,3.57
2019-05-07T04:58:37.730Z,3.20
2019-05-07T05:01:09.305Z,3.90
2019-05-07T05:03:39.467Z,3.70
2019-05-07T05:06:09.036Z,3.80
2019-05-07T05:08:38.522Z,3.40
2019-05-07T05:11:08.067Z,3.70
2019-05-07T05:13:37.542Z,3.60
2019-05-07T05:16:26.542Z,3.30
2019-05-07T05:18:57.190Z,3.20
2019-05-07T05:21:35.819Z,4.00
2019-05-07T05:24:08.914Z,4.33
2019-05-07T05:26:38.342Z,3.80
2019-05-07T05:29:07.819Z,4.40
2019-05-07T05:31:37.573Z,4.07
2019-05-07T05:34:07.298Z,4.30
2019-05-07T05:36:36.870Z,4.70
2019-05-07T05:39:08.346Z,3.60
2019-05-07T05:41:42.101Z,3.20
2019-05-07T05:44:20.189Z,4.03
2019-05-07T05:46:49.634Z,4.10
2019-05-07T05:49:19.167Z,4.27
2019-05-07T05:52:06.198Z,4.13
2019-05-07T05:54:39.830Z,4.47
2019-05-07T05:57:34.228Z,4.13
2019-05-07T06:00:22.073Z,3.70
2019-05-07T06:03:03.765Z,4.30
2019-05-07T06:05:55.206Z,3.57
2019-05-07T06:08:33.631Z,3.60
2019-05-07T06:11:25.080Z,3.40
2019-05-07T06:14:03.613Z,4.20
2019-05-07T06:16:37.239Z,4.20
2019-05-07T06:19:14.841Z,3.80
2019-05-07T06:22:09.454Z,3.97
2019-05-07T06:24:47.189Z,3.53
2019-05-07T06:27:16.694Z,4.20
2019-05-07T06:29:46.177Z,3.60
2019-05-07T06:32:17.109Z,4.30
2019-05-07T06:34:46.592Z,3.60
2019-05-07T06:37:16.122Z,4.57
2019-05-07T06:39:52.964Z,4.23
2019-05-07T06:42:42.660Z,4.90
2019-05-07T06:45:20.019Z,5.23
2019-05-07T06:47:49.472Z,5.60
2019-05-07T06:50:19.071Z,6.60
2019-05-07T06:52:48.518Z,5.97
2019-05-07T06:55:18.036Z,5.33
2019-05-07T06:57:47.526Z,6.37
2019-05-07T07:00:36.614Z,5.97
2019-05-07T07:03:16.202Z,5.43
2019-05-07T07:06:02.274Z,6.60
2019-05-07T07:08:52.592Z,5.37
2019-05-07T07:11:31.918Z,5.10
2019-05-07T07:14:02.600Z,5.60
2019-05-07T07:16:32.662Z,4.80
2019-05-07T07:19:03.326Z,5.90
2019-05-07T07:21:32.978Z,5.83
2019-05-07T07:24:02.988Z,5.77
2019-05-07T07:26:34.267Z,5.23
2019-05-07T07:29:03.706Z,5.03
2019-05-07T07:31:37.531Z,5.43
2019-05-07T07:34:07.273Z,5.37
2019-05-07T07:36:43.045Z,5.67
2019-05-07T07:39:12.751Z,5.50
2019-05-07T07:41:49.702Z,5.23
2019-05-07T07:44:19.184Z,5.30
2019-05-07T07:46:48.686Z,6.13
2019-05-07T07:49:18.120Z,5.90
2019-05-07T07:51:47.606Z,7.10
2019-05-07T07:54:17.068Z,5.97
2019-05-07T07:57:05.020Z,5.30
2019-05-07T07:59:47.018Z,6.60
2019-05-07T08:02:33.652Z,5.70
2019-05-07T08:05:03.262Z,6.20
2019-05-07T08:07:33.148Z,5.80
2019-05-07T08:10:02.753Z,5.63
2019-05-07T08:12:32.568Z,5.73
2019-05-07T08:15:14.521Z,5.80
2019-05-07T08:17:33.401Z,6.57
2019-05-07T08:20:03.256Z,5.10
2019-05-07T08:22:33.077Z,6.30
2019-05-07T08:25:04.390Z,6.00
2019-05-07T08:27:33.904Z,6.20
2019-05-07T08:30:04.251Z,6.53
2019-05-07T08:32:53.016Z,4.97
2019-05-07T08:35:35.306Z,4.40
2019-05-07T08:38:04.780Z,5.60
2019-05-07T08:40:34.253Z,4.87
2019-05-07T08:43:03.847Z,5.00
2019-05-07T08:45:52.449Z,4.57
2019-05-07T08:48:26.508Z,4.63
2019-05-07T08:50:56.069Z,4.57
2019-05-07T08:53:25.558Z,4.63
2019-05-07T08:55:55.182Z,4.20
2019-05-07T08:58:24.710Z,4.27
2019-05-07T09:00:54.150Z,4.33
2019-05-07T09:03:44.066Z,4.60
2019-05-07T09:06:15.004Z,5.30
2019-05-07T09:08:44.591Z,5.63
2019-05-07T09:11:14.128Z,5.73
2019-05-07T09:13:43.588Z,5.37
2019-05-07T09:16:13.159Z,6.27
2019-05-07T09:18:42.789Z,5.20
2019-05-07T09:21:12.731Z,5.80
2019-05-07T09:23:42.541Z,5.40
2019-05-07T09:26:13.990Z,5.80
2019-05-07T09:28:53.565Z,5.77
2019-05-07T09:31:32.669Z,5.67
2019-05-07T09:34:02.720Z,5.57
2019-05-07T09:36:38.329Z,5.47
2019-05-07T09:39:08.465Z,7.00
2019-05-07T09:41:38.154Z,6.17
2019-05-07T09:44:07.633Z,6.03
2019-05-07T09:46:37.289Z,6.00
2019-05-07T09:49:06.803Z,6.70
2019-05-07T09:51:36.291Z,6.47
2019-05-07T09:54:05.759Z,6.97
2019-05-07T09:56:35.206Z,6.00
2019-05-07T09:59:04.684Z,6.20
2019-05-07T10:01:34.130Z,5.43
2019-05-07T10:04:03.627Z,6.27
2019-05-07T10:06:33.080Z,6.50
2019-05-07T10:09:02.950Z,6.10
2019-05-07T10:11:44.083Z,6.23
2019-05-07T10:14:13.829Z,5.73
2019-05-07T10:16:52.520Z,5.13
2019-05-07T10:19:22.292Z,5.50
2019-05-07T10:21:52.953Z,6.13
2019-05-07T10:24:22.524Z,6.77
2019-05-07T10:26:53.082Z,5.73
2019-05-07T10:29:22.790Z,6.23
2019-05-07T10:31:52.738Z,5.37
2019-05-07T10:34:22.870Z,5.23
2019-05-07T10:36:52.980Z,6.30
2019-05-07T10:39:22.546Z,5.93
2019-05-07T10:41:52.218Z,5.97
2019-05-07T10:44:24.369Z,6.20
2019-05-07T10:47:31.308Z,5.70
2019-05-07T10:50:34.924Z,6.43
2019-05-07T10:52:52.799Z,6.40
2019-05-07T10:55:22.796Z,6.03
2019-05-07T10:57:52.916Z,5.47
2019-05-07T11:00:24.768Z,6.73
2019-05-07T11:02:54.406Z,6.80
2019-05-07T11:05:23.889Z,6.40
2019-05-07T11:07:53.878Z,7.53
2019-05-07T11:10:23.695Z,6.70
2019-05-07T11:12:53.158Z,6.90
2019-05-07T11:15:22.750Z,7.20
2019-05-07T11:18:14.361Z,6.03
2019-05-07T11:20:49.849Z,5.90
2019-05-07T11:23:15.042Z,5.77
2019-05-07T11:25:44.531Z,7.10
2019-05-07T11:28:14.097Z,6.03
2019-05-07T11:30:44.022Z,7.57
2019-05-07T11:33:13.688Z,5.87
2019-05-07T11:35:43.453Z,7.57
2019-05-07T11:38:20.694Z,7.07
2019-05-07T11:40:45.161Z,6.50
2019-05-07T11:43:22.302Z,6.33
2019-05-07T11:46:08.191Z,6.90
2019-05-07T11:48:42.621Z,6.03
2019-05-07T11:51:19.991Z,6.87
2019-05-07T11:54:08.844Z,7.83
2019-05-07T11:56:38.495Z,8.00
2019-05-07T11:59:08.056Z,6.50
2019-05-07T12:01:44.508Z,6.80
2019-05-07T12:04:12.506Z,7.10
2019-05-07T12:06:41.985Z,6.77
2019-05-07T12:09:12.146Z,6.60
2019-05-07T12:11:42.546Z,6.33
2019-05-07T12:14:12.530Z,6.57
2019-05-07T12:16:42.756Z,6.60
2019-05-07T12:19:13.152Z,6.30
2019-05-07T12:21:43.213Z,6.10
2019-05-07T12:24:16.009Z,7.00
2019-05-07T12:26:44.357Z,6.33
2019-05-07T12:29:14.043Z,7.13
2019-05-07T12:31:58.136Z,6.90
2019-05-07T12:34:34.783Z,6.60
2019-05-07T12:37:04.684Z,7.00
2019-05-07T12:39:34.122Z,6.63
2019-05-07T12:42:03.653Z,6.70
2019-05-07T12:44:33.193Z,6.73
2019-05-07T12:47:02.918Z,7.00
2019-05-07T12:49:32.578Z,6.97
2019-05-07T12:52:12.655Z,7.10
2019-05-07T12:55:00.164Z,7.13
2019-05-07T12:57:29.660Z,7.37
2019-05-07T13:00:19.207Z,6.63
2019-05-07T13:03:07.648Z,6.47
2019-05-07T13:05:37.198Z,6.43
2019-05-07T13:08:06.710Z,6.80
2019-05-07T13:10:36.180Z,6.47
2019-05-07T13:13:05.973Z,6.90
2019-05-07T13:15:37.427Z,7.40
2019-05-07T13:18:06.914Z,6.40
2019-05-07T13:20:36.405Z,6.63
2019-05-07T13:23:06.262Z,5.80
2019-05-07T13:25:35.910Z,7.00
2019-05-07T13:28:05.578Z,6.87
2019-05-07T13:30:35.153Z,6.90
2019-05-07T13:33:05.715Z,6.50
2019-05-07T13:35:35.968Z,7.33
2019-05-07T13:38:23.942Z,7.93
2019-05-07T13:41:18.752Z,6.93
2019-05-07T13:44:19.690Z,7.37
2019-05-07T13:46:52.997Z,7.90
2019-05-07T13:49:22.471Z,8.77
2019-05-07T13:52:03.228Z,6.80
2019-05-07T13:54:23.951Z,7.70
2019-05-07T13:56:53.499Z,7.20
2019-05-07T13:59:23.502Z,7.70
2019-05-07T14:02:04.500Z,7.37
2019-05-07T14:04:33.377Z,6.60
2019-05-07T14:07:03.638Z,7.70
2019-05-07T14:09:33.361Z,6.83
2019-05-07T14:12:02.935Z,8.37
2019-05-07T14:14:34.590Z,8.80
2019-05-07T14:17:04.224Z,7.77
2019-05-07T14:19:33.739Z,8.80
2019-05-07T14:22:14.691Z,7.80
2019-05-07T14:24:34.371Z,7.90
2019-05-07T14:27:03.813Z,7.77
2019-05-07T14:29:33.425Z,8.70
2019-05-07T14:32:12.805Z,7.70
2019-05-07T14:35:02.094Z,8.03
2019-05-07T14:37:35.317Z,7.17
2019-05-07T14:40:05.524Z,8.00
2019-05-07T14:42:41.957Z,7.20
2019-05-07T14:45:11.683Z,7.27
2019-05-07T14:47:44.465Z,8.13
2019-05-07T14:50:12.697Z,8.47
2019-05-07T14:52:43.290Z,8.17
2019-05-07T14:55:13.389Z,8.90
2019-05-07T14:57:42.835Z,7.37
2019-05-07T15:00:13.051Z,7.50
2019-05-07T15:02:42.886Z,7.20
2019-05-07T15:05:12.893Z,7.43
2019-05-07T15:07:42.424Z,7.63
2019-05-07T15:10:12.542Z,8.30
2019-05-07T15:12:42.776Z,7.53
2019-05-07T15:15:12.695Z,7.67
2019-05-07T15:18:05.425Z,7.87
2019-05-07T15:20:34.932Z,8.73
2019-05-07T15:23:09.231Z,8.07
2019-05-07T15:25:38.809Z,7.53
2019-05-07T15:28:08.775Z,8.37
2019-05-07T15:30:45.673Z,7.70
2019-05-07T15:33:17.637Z,8.20
2019-05-07T15:35:47.320Z,7.97
2019-05-07T15:38:16.803Z,8.87
2019-05-07T15:40:46.269Z,7.60
2019-05-07T15:43:15.776Z,7.90
2019-05-07T15:45:45.292Z,7.70
2019-05-07T15:48:15.893Z,7.97
2019-05-07T15:50:45.632Z,9.33
2019-05-07T15:53:22.871Z,7.83
2019-05-07T15:55:52.530Z,8.50
2019-05-07T15:58:22.766Z,7.00
2019-05-07T16:00:52.266Z,7.80
2019-05-07T16:03:32.107Z,6.83
2019-05-07T16:06:03.741Z,8.27
2019-05-07T16:08:39.328Z,8.13
2019-05-07T16:11:09.162Z,7.43
2019-05-07T16:13:42.074Z,8.87
2019-05-07T16:16:11.572Z,7.70
2019-05-07T16:19:01.910Z,6.93
2019-05-07T16:21:32.457Z,7.23
2019-05-07T16:24:04.126Z,7.53
2019-05-07T16:26:33.214Z,7.50
2019-05-07T16:29:04.624Z,7.60
2019-05-07T16:31:34.012Z,7.57
2019-05-07T16:34:03.465Z,8.60
2019-05-07T16:36:33.091Z,7.43
2019-05-07T16:39:05.006Z,7.90
2019-05-07T16:41:34.484Z,6.33
2019-05-07T16:44:04.312Z,7.57
2019-05-07T16:46:33.821Z,7.20
2019-05-07T16:49:03.426Z,7.63
2019-05-07T16:51:33.173Z,7.50
2019-05-07T16:54:03.427Z,9.00
2019-05-07T16:56:33.428Z,7.90
2019-05-07T16:59:07.587Z,7.67
2019-05-07T17:01:36.890Z,9.30
2019-05-07T17:04:06.333Z,8.73
2019-05-07T17:06:35.814Z,7.87
2019-05-07T17:09:14.092Z,9.33
2019-05-07T17:11:43.906Z,10.40
2019-05-07T17:14:15.220Z,8.90
2019-05-07T17:16:44.696Z,9.90
2019-05-07T17:19:15.377Z,9.20
2019-05-07T17:21:44.940Z,7.80
2019-05-07T17:24:14.404Z,7.87
2019-05-07T17:26:43.895Z,8.60
2019-05-07T17:29:13.373Z,7.30
2019-05-07T17:31:42.846Z,7.33
2019-05-07T17:34:12.492Z,7.80
2019-05-07T17:36:42.368Z,8.77
2019-05-07T17:39:12.293Z,7.90
2019-05-07T17:41:42.898Z,9.63
2019-05-07T17:44:12.656Z,9.40
2019-05-07T17:46:46.028Z,8.43
2019-05-07T17:49:15.473Z,8.17
2019-05-07T17:51:45.334Z,8.13
2019-05-07T17:54:16.488Z,8.90
2019-05-07T17:56:45.976Z,8.70
2019-05-07T17:59:15.422Z,8.50
2019-05-07T18:02:16.479Z,7.47
2019-05-07T18:04:51.516Z,8.53
2019-05-07T18:07:18.782Z,7.40
2019-05-07T18:09:48.249Z,6.90
2019-05-07T18:12:17.746Z,7.60
2019-05-07T18:14:47.191Z,6.30
2019-05-07T18:17:35.631Z,7.07
2019-05-07T18:20:05.753Z,6.70
2019-05-07T18:22:35.236Z,6.47
2019-05-07T18:25:05.422Z,6.63
2019-05-07T18:27:34.918Z,6.97
2019-05-07T18:30:04.619Z,6.10
2019-05-07T18:32:38.822Z,7.40
2019-05-07T18:35:08.414Z,6.97
2019-05-07T18:37:41.835Z,6.83
2019-05-07T18:40:12.701Z,6.80
2019-05-07T18:42:42.241Z,7.37
2019-05-07T18:45:12.456Z,8.50
2019-05-07T18:47:43.758Z,8.20
2019-05-07T18:50:13.767Z,8.10
2019-05-07T18:52:43.325Z,7.93
2019-05-07T18:55:13.094Z,7.93
2019-05-07T18:57:42.583Z,7.47
2019-05-07T19:00:16.976Z,7.23
2019-05-07T19:02:46.611Z,7.00
2019-05-07T19:05:16.062Z,7.43
2019-05-07T19:07:45.530Z,7.13
2019-05-07T19:10:15.646Z,7.37
2019-05-07T19:12:45.106Z,7.60
2019-05-07T19:15:15.078Z,7.57
2019-05-07T19:17:44.591Z,7.70
2019-05-07T19:20:14.159Z,7.87
2019-05-07T19:22:43.641Z,7.27
2019-05-07T19:25:13.611Z,7.00
2019-05-07T19:27:43.340Z,7.07
2019-05-07T19:30:13.296Z,7.17
2019-05-07T19:32:42.795Z,7.70
2019-05-07T19:35:12.667Z,7.07
2019-05-07T19:37:42.600Z,7.67
2019-05-07T19:40:12.620Z,7.57
2019-05-07T19:42:42.870Z,7.93
2019-05-07T19:45:12.833Z,7.90
2019-05-07T19:47:42.823Z,8.33
2019-05-07T19:50:13.671Z,8.30
2019-05-07T19:52:43.105Z,7.60
2019-05-07T19:55:12.819Z,8.07
2019-05-07T19:57:52.083Z,7.47
2019-05-07T20:00:23.426Z,7.70
2019-05-07T20:02:54.633Z,8.60
2019-05-07T20:05:24.139Z,9.07
2019-05-07T20:07:57.226Z,8.40
2019-05-07T20:10:39.669Z,8.33
2019-05-07T20:13:09.204Z,8.40
2019-05-07T20:15:42.092Z,8.43
2019-05-07T20:18:12.450Z,8.20
2019-05-07T20:20:42.530Z,8.33
2019-05-07T20:23:12.160Z,8.63
2019-05-07T20:25:42.073Z,8.17
2019-05-07T20:28:12.726Z,8.80
2019-05-07T20:30:42.578Z,7.63
2019-05-07T20:33:12.026Z,8.53
2019-05-07T20:35:43.763Z,8.50
2019-05-07T20:38:12.592Z,7.70
2019-05-07T20:40:42.460Z,8.40
2019-05-07T20:43:12.670Z,9.03
2019-05-07T20:45:42.646Z,8.80
2019-05-07T20:48:12.180Z,7.80
2019-05-07T20:50:42.433Z,8.30
2019-05-07T20:53:11.918Z,7.80
2019-05-07T20:55:56.761Z,7.37
2019-05-07T20:58:26.192Z,7.97
2019-05-07T21:00:55.748Z,8.00
2019-05-07T21:03:25.225Z,7.40
2019-05-07T21:05:54.728Z,7.00
2019-05-07T21:08:24.287Z,7.47
2019-05-07T21:10:53.961Z,7.20
2019-05-07T21:13:30.765Z,8.70
2019-05-07T21:15:54.824Z,8.43
2019-05-07T21:18:24.276Z,8.10
2019-05-07T21:20:53.912Z,7.17
2019-05-07T21:23:23.452Z,7.83
2019-05-07T21:25:53.310Z,7.07
2019-05-07T21:28:22.954Z,7.43
2019-05-07T21:30:52.670Z,8.33
2019-05-07T21:33:23.020Z,7.20
2019-05-07T21:35:53.007Z,7.40
2019-05-07T21:38:22.968Z,7.13
2019-05-07T21:40:52.595Z,7.50
2019-05-07T21:43:22.459Z,8.10
2019-05-07T21:45:52.969Z,7.17
2019-05-07T21:48:22.865Z,7.10
2019-05-07T21:50:52.671Z,7.40
2019-05-07T21:53:46.945Z,7.90
2019-05-07T21:56:47.583Z,7.80
2019-05-07T21:59:21.795Z,7.10
2019-05-07T22:01:54.576Z,7.43
2019-05-07T22:04:24.056Z,7.83
2019-05-07T22:06:54.710Z,8.23
2019-05-07T22:09:25.845Z,7.93
2019-05-07T22:11:55.314Z,7.93
2019-05-07T22:14:24.762Z,8.00
2019-05-07T22:16:54.678Z,7.50
2019-05-07T22:19:24.168Z,7.50
2019-05-07T22:21:53.666Z,7.50
2019-05-07T22:24:23.146Z,8.30
2019-05-07T22:26:52.652Z,7.40
2019-05-07T22:29:22.764Z,7.27
2019-05-07T22:32:17.347Z,8.17
2019-05-07T22:34:52.117Z,7.63
2019-05-07T22:37:22.092Z,8.10
2019-05-07T22:39:51.604Z,7.17
2019-05-07T22:42:22.340Z,6.90
2019-05-07T22:44:51.920Z,8.10
2019-05-07T22:47:22.781Z,7.93
2019-05-07T22:49:53.621Z,7.03
2019-05-07T22:52:23.411Z,6.47
2019-05-07T22:54:52.884Z,6.93
2019-05-07T22:57:29.483Z,7.80
2019-05-07T22:59:58.927Z,7.00
2019-05-07T23:02:28.404Z,7.37
2019-05-07T23:04:57.853Z,7.87
2019-05-07T23:07:27.391Z,7.43
2019-05-07T23:09:57.080Z,8.40
2019-05-07T23:12:26.530Z,7.73
2019-05-07T23:14:55.965Z,7.80
2019-05-07T23:17:25.435Z,7.73
2019-05-07T23:19:55.214Z,7.57
2019-05-07T23:22:24.692Z,7.67
2019-05-07T23:24:54.226Z,7.17
2019-05-07T23:27:23.700Z,7.87
2019-05-07T23:29:53.174Z,7.33
2019-05-07T23:32:22.670Z,7.50
2019-05-07T23:34:52.726Z,7.13
2019-05-07T23:37:22.640Z,7.80
2019-05-07T23:39:54.254Z,7.20
2019-05-07T23:42:27.701Z,7.60
2019-05-07T23:44:57.129Z,7.00
2019-05-07T23:47:31.376Z,7.20
2019-05-07T23:50:01.891Z,7.07
2019-05-07T23:52:30.643Z,8.37
2019-05-07T23:55:00.069Z,7.33
2019-05-07T23:57:29.539Z,7.43
2019-05-07T23:59:59.004Z,8.60
